Aeroporto :
LOGIN :

Iscrizione | Disclaimer

   EN    FR    IT 

 










Sommario :    VFR   VFR Marginale   IFR   IFR Intensivo   IFR Molto Intensivo
Visibilità : 
Base nubi : 
>= 8 km
>= 3000ft
5 / 8 km
1000 / 3000 ft
1500m / 5 km
500 / 1000 ft
800 / 1500m
200 / 500 ft
< 800m
< 200 ft
Simboli :   Temporali  Nebbia  Neve Forte  Precipitazioni Forti  Vento > 20 kt
SIGMETs :   Varie  Temporali  Ghiacco  Turbolenza  Onda orograficha  Ceneri Vulcaniche






- Altitudine del aeroporto : 13 ft
- Codice IATA : CEQ


LFMD - Cannes Mandelieu

ULTIMO METAR :
  • 221100Z AUTO 08011G22KT 020V140 9999 SCT092 BKN110 23/17 Q1018 NOSIG

METARs OBSOLETI :
  • 221030Z AUTO VRB09G21KT 9999 BKN096 23/18 Q1019 NOSIG
  • 221000Z AUTO 07008G19KT 010V150 9999 SCT098 23/18 Q1019 NOSIG
  • 220930Z AUTO VRB07G18KT 9999 FEW023 BKN110 23/18 Q1019 NOSIG
  • 220900Z AUTO VRB07KT 9999 FEW021 BKN100 22/18 Q1019 TEMPO 08015G25KT
  • 220830Z AUTO VRB02KT 9999 SCT024 OVC100 22/18 Q1019 BECMG 08015G25KT
  • 220800Z AUTO VRB03KT 9999 BKN023 BKN066 OVC100 21/17 Q1019 BECMG 08015G25KT

TAF TAF LFMD
Valido dal 22 a 09 ore il 23 a 09 ore UTC


220800Z 2209/2309 08010KT 9999 FEW025 SCT080
TEMPO 2210/2309 08015G25KT
ATIS : +33 4 93 48 73 23



MetMap, La meteo Aeronautica in un colpo d'occhio ! - Copyright ORBIFLY Dicembre 2007 - Disclaimer

ORBIFLY MET'MAP TEAM :

Programmazione e sviluppo : Alexandra Zaïnal
Concezione e sviluppo : Baudouin d'Aumeries
Co-Programmazione e sviluppo : Marc-Olivier Méhu
Supporto tecnico e logistico : Manuel Goepfert
Aiuto per la traduzione : Arnaldo La Scala

Contatto : metmap@orbifly.com




FONTI E CREDITI :

   NOAA